Time;durP1;ratioP1;P1;durP2;ratioP2;P2;SDS_P1;SDS_P2;PMS_P1;PMS_P2;Temp;Humidity;BMP_temperature;BMP_pressure;BME280_temperature;BME280_humidity;BME280_pressure;Samples;Min_cycle;Max_cycle;Signal;HPM_P1;HPM_P2
2023/03/02 00:01:53;;;;;;;16.00;6.90;;;;;;;16.79;26.67;100598.27;108218;1250;75070;-65
2023/03/02 00:04:26;;;;;;;15.00;5.90;;;;;;;16.51;26.85;100596.58;108199;1250;71196;-66
2023/03/02 00:06:58;;;;;;;17.60;6.40;;;;;;;16.31;27.10;100592.70;108224;1250;72250;-64
2023/03/02 00:09:27;;;;;;;17.20;7.40;;;;;;;16.30;27.16;100596.46;108281;1256;60787;-66
2023/03/02 00:11:55;;;;;;;20.00;6.90;;;;;;;16.07;27.44;100595.02;108264;1250;61140;-65
2023/03/02 00:14:24;;;;;;;14.20;6.40;;;;;;;15.87;27.64;100596.40;108256;1250;74619;-66
2023/03/02 00:16:52;;;;;;;17.40;6.60;;;;;;;15.75;27.71;100590.65;108253;1250;71113;-65
2023/03/02 00:19:20;;;;;;;16.70;6.80;;;;;;;15.83;27.75;100583.16;108234;1250;71963;-65
2023/03/02 00:21:48;;;;;;;17.80;7.00;;;;;;;16.04;27.48;100583.86;108328;1250;62000;-63
2023/03/02 00:24:17;;;;;;;16.00;6.50;;;;;;;16.05;27.59;100583.06;108283;1250;61427;-66
2023/03/02 00:26:45;;;;;;;15.10;6.90;;;;;;;16.03;27.56;100581.40;108227;1250;75075;-64
2023/03/02 00:29:14;;;;;;;14.90;7.10;;;;;;;16.55;27.06;100579.36;108339;1251;71328;-65
2023/03/02 00:31:42;;;;;;;16.20;5.90;;;;;;;16.87;26.58;100578.98;108368;1251;74098;-65
2023/03/02 00:34:11;;;;;;;15.60;7.10;;;;;;;16.99;26.59;100576.73;108372;1251;61050;-66
2023/03/02 00:36:40;;;;;;;14.70;6.60;;;;;;;16.58;26.88;100577.77;108230;1251;60612;-65
2023/03/02 00:39:08;;;;;;;18.90;7.00;;;;;;;16.59;26.92;100575.05;108412;1251;75367;-65
2023/03/02 00:41:37;;;;;;;15.90;6.40;;;;;;;16.53;26.89;100572.15;108375;1251;70533;-65
2023/03/02 00:44:07;;;;;;;15.80;5.80;;;;;;;16.15;27.28;100575.11;108436;1251;72581;-67
2023/03/02 00:46:35;;;;;;;17.70;5.90;;;;;;;15.91;27.64;100571.77;108402;1251;61054;-65
2023/03/02 00:49:09;;;;;;;16.50;6.40;;;;;;;15.81;27.76;100566.99;108346;1253;61505;-65
2023/03/02 00:51:38;;;;;;;14.90;5.70;;;;;;;15.74;27.95;100571.57;108373;1251;74411;-65
2023/03/02 00:54:09;;;;;;;17.70;6.70;;;;;;;15.95;27.75;100566.23;108313;1251;70581;-65
2023/03/02 00:56:39;;;;;;;16.30;6.20;;;;;;;15.69;28.00;100573.79;108168;1252;72775;-66
2023/03/02 00:59:27;;;;;;;16.60;6.10;;;;;;;15.45;28.25;100569.98;108242;1251;61443;-66
2023/03/02 01:02:20;;;;;;;;;;;;;;;15.35;28.46;100573.53;108416;1251;61103;-66
2023/03/02 01:04:49;;;;;;;16.50;5.50;;;;;;;15.60;28.34;100571.94;108404;1251;74829;-66
2023/03/02 01:07:17;;;;;;;16.80;5.90;;;;;;;15.83;27.98;100566.70;108361;1251;70522;-64
2023/03/02 01:09:47;;;;;;;17.90;6.30;;;;;;;16.00;27.87;100560.31;108345;1251;71725;-64
2023/03/02 01:12:16;;;;;;;17.10;5.40;;;;;;;15.99;27.77;100560.89;108258;1251;62419;-65
2023/03/02 01:14:46;;;;;;;15.70;5.80;;;;;;;16.00;27.72;100562.77;108140;1251;59539;-65
2023/03/02 01:17:14;;;;;;;15.10;6.10;;;;;;;15.95;27.70;100565.17;108137;1251;74957;-65
2023/03/02 01:19:43;;;;;;;15.90;5.90;;;;;;;16.04;27.69;100563.64;108317;1253;71233;-66
2023/03/02 01:22:11;;;;;;;12.70;5.70;;;;;;;15.75;27.81;100562.16;108205;1251;73704;-65
2023/03/02 01:24:42;;;;;;;;;;;;;;;15.75;27.82;100560.88;108329;1253;61378;-64
2023/03/02 01:27:10;;;;;;;14.90;6.00;;;;;;;15.99;27.45;100563.05;108303;1251;60790;-65
2023/03/02 01:29:38;;;;;;;16.10;6.20;;;;;;;15.91;27.61;100554.94;108323;1253;74719;-64
2023/03/02 01:32:06;;;;;;;12.10;5.60;;;;;;;16.18;27.36;100551.56;108220;1251;71554;-65
2023/03/02 01:34:35;;;;;;;18.10;6.50;;;;;;;16.06;27.35;100551.84;108344;1251;73638;-65
2023/03/02 01:37:03;;;;;;;13.50;5.20;;;;;;;15.96;27.46;100547.07;108323;1251;61330;-65
2023/03/02 01:39:32;;;;;;;17.90;6.10;;;;;;;16.11;27.27;100543.95;108382;1251;60438;-66
2023/03/02 01:42:04;;;;;;;17.70;6.60;;;;;;;15.99;27.45;100542.84;108336;1251;73174;-66
2023/03/02 01:44:37;;;;;;;19.30;6.30;;;;;;;15.86;27.57;100541.92;108324;1251;71799;-65
2023/03/02 01:47:32;;;;;;;14.20;6.50;;;;;;;15.54;27.81;100545.30;108317;1251;73917;-64
2023/03/02 01:50:20;;;;;;;15.10;5.60;;;;;;;15.89;27.49;100542.84;108343;1251;62061;-67
2023/03/02 01:52:52;;;;;;;12.20;5.30;;;;;;;15.84;27.60;100544.02;108228;1251;60560;-65
2023/03/02 01:55:23;;;;;;;14.00;5.60;;;;;;;16.07;27.33;100540.83;108085;1251;73088;-64
2023/03/02 01:57:52;;;;;;;13.90;6.00;;;;;;;16.47;26.89;100535.80;108258;1252;71259;-64
2023/03/02 02:00:28;;;;;;;16.60;6.70;;;;;;;16.01;27.35;100537.43;108060;1251;74066;-65
2023/03/02 02:03:07;;;;;;;13.60;5.60;;;;;;;16.04;27.38;100537.80;108434;1249;63178;-66
2023/03/02 02:05:40;;;;;;;17.30;6.40;;;;;;;16.13;27.20;100533.21;108483;1250;60639;-64
2023/03/02 02:08:08;;;;;;;20.60;6.30;;;;;;;16.17;27.19;100534.77;108378;1249;73764;-64
2023/03/02 02:10:41;;;;;;;14.40;6.30;;;;;;;16.34;26.99;100534.75;108544;1249;71316;-66
2023/03/02 02:13:10;;;;;;;16.60;6.10;;;;;;;16.22;27.04;100537.17;108403;1254;73678;-66
2023/03/02 02:15:38;;;;;;;15.80;6.10;;;;;;;16.21;27.08;100540.41;108395;1251;63190;-66
2023/03/02 02:18:06;;;;;;;16.00;6.80;;;;;;;16.26;26.94;100545.30;108555;1250;60486;-65
2023/03/02 02:20:37;;;;;;;16.60;6.60;;;;;;;16.10;27.16;100547.05;108369;1250;75057;-64
2023/03/02 02:23:27;;;;;;;19.60;7.00;;;;;;;16.18;27.04;100547.15;108392;1251;71155;-65
2023/03/02 02:26:18;;;;;;;20.30;7.00;;;;;;;16.20;27.05;100549.02;108498;1252;73089;-65
2023/03/02 02:29:01;;;;;;;17.50;5.70;;;;;;;16.15;26.98;100545.70;108278;1251;62800;-64
2023/03/02 02:31:53;;;;;;;;;;;;;;;15.98;27.27;100542.54;108235;1251;61250;-64
2023/03/02 02:34:26;;;;;;;10.50;4.80;;;;;;;16.23;27.03;100545.27;108128;1250;74742;-65
2023/03/02 02:36:59;;;;;;;19.60;5.90;;;;;;;16.28;26.99;100543.06;108160;1250;69489;-64
2023/03/02 02:39:30;;;;;;;16.30;6.10;;;;;;;16.06;27.16;100535.37;108122;1250;71862;-65
2023/03/02 02:42:03;;;;;;;15.60;6.60;;;;;;;15.98;27.18;100534.20;108158;1250;62983;-66
2023/03/02 02:44:31;;;;;;;16.70;6.10;;;;;;;15.83;27.48;100528.45;108159;1250;61081;-66
2023/03/02 02:47:00;;;;;;;14.10;6.10;;;;;;;15.86;27.49;100527.98;108102;1250;74816;-65
2023/03/02 02:49:36;;;;;;;22.40;7.20;;;;;;;15.89;27.33;100532.02;108192;1251;70543;-64
2023/03/02 02:52:05;;;;;;;15.70;5.20;;;;;;;15.84;27.42;100529.27;108240;1250;73600;-63
2023/03/02 02:54:35;;;;;;;20.00;6.60;;;;;;;15.85;27.43;100527.47;108217;1250;62469;-65
2023/03/02 02:57:04;;;;;;;18.00;6.70;;;;;;;16.00;27.27;100530.17;108162;1251;61518;-66
2023/03/02 02:59:35;;;;;;;14.50;5.70;;;;;;;15.97;27.28;100533.77;108229;1250;74891;-65
2023/03/02 03:02:04;;;;;;;14.30;6.10;;;;;;;15.90;27.29;100539.23;108478;1252;71335;-65
2023/03/02 03:04:32;;;;;;;17.10;5.80;;;;;;;15.93;27.24;100536.44;108578;1250;73721;-68
2023/03/02 03:07:04;;;;;;;16.70;6.20;;;;;;;15.69;27.55;100533.80;108502;1250;63039;-65
2023/03/02 03:09:33;;;;;;;19.40;6.20;;;;;;;16.00;27.22;100537.84;108356;1252;61269;-65
2023/03/02 03:12:12;;;;;;;16.80;6.30;;;;;;;16.02;27.30;100534.18;108540;1249;74983;-66
2023/03/02 03:14:41;;;;;;;16.50;5.90;;;;;;;16.01;27.12;100534.75;108379;1251;70884;-66
2023/03/02 03:17:13;;;;;;;18.60;6.40;;;;;;;16.18;27.06;100534.92;108328;1251;73904;-65
2023/03/02 03:19:50;;;;;;;14.10;6.40;;;;;;;16.20;27.07;100534.65;108537;1251;62230;-67
2023/03/02 03:22:18;;;;;;;18.40;6.10;;;;;;;16.16;27.09;100533.27;108483;1250;60674;-66
2023/03/02 03:24:48;;;;;;;19.70;6.80;;;;;;;16.05;27.18;100530.11;108354;1251;75043;-67
2023/03/02 03:27:17;;;;;;;18.50;6.70;;;;;;;16.16;27.07;100529.90;108536;1250;71543;-66
2023/03/02 03:29:50;;;;;;;21.70;6.40;;;;;;;15.68;27.40;100535.40;108349;1251;73747;-65
2023/03/02 03:35:09;;;;;;;15.50;6.50;;;;;;;11.57;33.24;100540.98;104975;1289;600350;-65
2023/03/02 03:37:40;;;;;;;19.90;5.50;;;;;;;13.87;29.82;100530.79;108173;1253;63400;-64
2023/03/02 03:40:10;;;;;;;13.80;5.90;;;;;;;14.19;29.59;100532.71;108343;1253;59133;-65
2023/03/02 03:42:41;;;;;;;15.80;6.00;;;;;;;14.58;29.06;100532.69;108238;1252;73341;-66
2023/03/02 03:45:09;;;;;;;18.20;6.10;;;;;;;14.77;28.77;100534.27;108348;1253;70563;-66
2023/03/02 03:47:43;;;;;;;16.60;6.10;;;;;;;15.04;28.53;100528.16;108238;1251;177466;-65
2023/03/02 03:50:12;;;;;;;16.40;5.50;;;;;;;15.24;28.27;100524.52;108379;1250;63013;-64
2023/03/02 03:52:41;;;;;;;15.20;5.40;;;;;;;15.17;28.19;100523.27;108257;1250;61591;-66
2023/03/02 03:55:14;;;;;;;14.30;5.50;;;;;;;15.02;28.34;100531.98;108260;1250;72206;-63
2023/03/02 03:57:42;;;;;;;14.10;5.50;;;;;;;14.63;28.87;100532.27;108259;1250;70198;-59
2023/03/02 04:00:18;;;;;;;19.50;5.80;;;;;;;14.94;28.52;100531.84;108196;1249;74471;-64
2023/03/02 04:02:49;;;;;;;15.80;5.80;;;;;;;15.28;28.21;100529.10;108300;1251;62861;-65
2023/03/02 04:05:21;;;;;;;12.60;5.70;;;;;;;15.46;28.04;100522.04;108400;1251;60669;-64
2023/03/02 04:07:52;;;;;;;15.50;5.50;;;;;;;15.37;28.15;100522.85;108166;1251;73068;-65
2023/03/02 04:10:21;;;;;;;15.70;6.30;;;;;;;15.39;28.18;100525.55;108404;1251;71773;-65
2023/03/02 04:12:54;;;;;;;18.10;6.30;;;;;;;15.29;28.21;100525.36;108190;1251;71528;-66
2023/03/02 04:15:23;;;;;;;16.70;5.90;;;;;;;15.53;27.91;100521.64;108179;1251;61810;-65
2023/03/02 04:17:52;;;;;;;18.90;5.90;;;;;;;15.54;27.94;100525.14;108336;1251;61229;-64
2023/03/02 04:20:22;;;;;;;16.00;6.50;;;;;;;15.61;27.84;100524.23;108367;1255;75181;-66
2023/03/02 04:22:53;;;;;;;12.70;6.20;;;;;;;15.32;28.18;100524.67;108163;1251;71208;-65
2023/03/02 04:25:25;;;;;;;20.40;6.90;;;;;;;15.37;28.09;100523.73;108282;1251;73549;-66
2023/03/02 04:27:58;;;;;;;16.90;5.80;;;;;;;15.82;27.84;100520.88;108333;1252;63082;-66
2023/03/02 04:30:29;;;;;;;18.60;6.40;;;;;;;15.53;28.04;100524.85;108333;1252;60283;-66
2023/03/02 04:32:58;;;;;;;15.50;5.90;;;;;;;15.57;27.99;100520.59;108149;1253;73744;-66
2023/03/02 04:35:28;;;;;;;13.60;6.30;;;;;;;15.43;28.23;100526.25;108284;1252;71492;-65
2023/03/02 04:37:57;;;;;;;16.10;5.80;;;;;;;15.90;27.76;100521.17;108223;1252;73659;-66
2023/03/02 04:40:26;;;;;;;14.80;6.20;;;;;;;16.13;27.48;100524.56;108107;1252;63240;-67
2023/03/02 04:42:54;;;;;;;19.10;6.00;;;;;;;16.20;27.30;100525.59;108204;1252;60295;-67
2023/03/02 04:45:22;;;;;;;16.70;5.70;;;;;;;16.29;27.35;100521.54;108200;1253;74246;-66
2023/03/02 04:47:53;;;;;;;14.70;5.80;;;;;;;16.07;27.61;100523.65;108316;1253;70112;-66
2023/03/02 04:50:24;;;;;;;13.60;5.50;;;;;;;16.48;27.23;100519.50;108384;1256;74011;-67
2023/03/02 04:52:54;;;;;;;12.70;6.20;;;;;;;16.29;27.32;100521.23;108317;1253;63007;-64
2023/03/02 04:55:23;;;;;;;12.50;5.60;;;;;;;16.27;27.44;100521.00;108349;1252;61272;-66
2023/03/02 04:57:52;;;;;;;14.20;5.90;;;;;;;16.49;27.16;100522.58;108334;1255;74064;-67
2023/03/02 05:00:20;;;;;;;23.70;7.20;;;;;;;16.59;27.07;100523.63;108328;1252;71479;-66
2023/03/02 05:02:50;;;;;;;15.60;5.70;;;;;;;16.67;27.09;100522.86;108374;1253;71342;-65
2023/03/02 05:05:23;;;;;;;23.40;6.10;;;;;;;16.57;27.17;100527.30;108302;1253;63212;-65
2023/03/02 05:07:51;;;;;;;15.40;6.10;;;;;;;16.72;27.07;100528.74;108278;1252;60082;-66
2023/03/02 05:10:20;;;;;;;13.80;6.00;;;;;;;16.53;27.23;100529.11;108259;1253;74012;-63
2023/03/02 05:12:57;;;;;;;13.60;6.30;;;;;;;16.39;27.53;100534.67;108464;1253;69956;-67
2023/03/02 05:15:28;;;;;;;18.20;5.60;;;;;;;16.36;27.49;100535.73;108255;1253;73861;-66
2023/03/02 05:17:57;;;;;;;17.50;6.20;;;;;;;16.87;27.08;100540.16;108291;1252;62702;-65
2023/03/02 05:20:30;;;;;;;21.10;6.70;;;;;;;16.90;27.09;100544.65;108368;1252;61046;-66
2023/03/02 05:23:03;;;;;;;18.80;6.50;;;;;;;16.85;27.18;100548.28;108304;1253;74761;-65
2023/03/02 05:25:36;;;;;;;16.30;6.30;;;;;;;17.04;27.10;100550.36;108261;1253;71606;-67
2023/03/02 05:28:05;;;;;;;14.80;5.50;;;;;;;17.00;27.07;100552.77;108280;1253;72587;-66
2023/03/02 05:30:36;;;;;;;18.90;6.70;;;;;;;16.70;27.46;100559.73;108146;1253;62107;-65
2023/03/02 05:33:04;;;;;;;;;;;;;;;16.81;27.46;100559.66;108233;1253;59434;-66
2023/03/02 05:35:33;;;;;;;14.00;5.40;;;;;;;17.02;27.20;100559.03;108061;1253;74564;-65
2023/03/02 05:38:01;;;;;;;27.00;7.40;;;;;;;17.13;27.08;100559.80;108108;1253;69654;-67
2023/03/02 05:40:31;;;;;;;18.20;5.60;;;;;;;17.35;27.34;100557.30;108195;1253;72894;-66
2023/03/02 05:42:59;;;;;;;16.30;5.80;;;;;;;17.99;27.22;100557.59;108121;1253;62190;-66
2023/03/02 05:45:30;;;;;;;17.20;6.60;;;;;;;18.62;26.78;100562.23;108141;1253;61171;-66
2023/03/02 05:47:59;;;;;;;14.10;5.80;;;;;;;19.23;26.58;100564.32;108240;1256;73260;-66
2023/03/02 05:50:27;;;;;;;18.40;6.20;;;;;;;19.68;26.51;100565.63;108144;1253;70775;-66
2023/03/02 05:52:58;;;;;;;16.60;6.20;;;;;;;20.31;25.95;100563.00;108191;1253;72649;-68
2023/03/02 05:55:27;;;;;;;13.70;6.00;;;;;;;21.12;24.68;100561.46;108289;1252;59986;-66
2023/03/02 05:57:55;;;;;;;13.50;6.20;;;;;;;21.64;23.84;100564.41;108241;1253;60225;-66
2023/03/02 06:00:24;;;;;;;12.90;5.50;;;;;;;21.67;23.82;100561.52;108340;1252;74282;-67
2023/03/02 06:02:53;;;;;;;16.50;5.50;;;;;;;21.88;23.34;100568.09;108226;1252;71921;-66
2023/03/02 06:05:21;;;;;;;16.00;5.80;;;;;;;22.37;23.23;100572.85;108245;1253;72892;-66
2023/03/02 06:07:50;;;;;;;13.60;5.60;;;;;;;23.27;22.46;100573.66;108195;1253;60200;-67
2023/03/02 06:10:18;;;;;;;15.30;5.80;;;;;;;23.87;22.05;100574.31;108387;1252;60109;-67
2023/03/02 06:12:46;;;;;;;13.00;5.90;;;;;;;24.23;21.75;100568.73;108218;1252;73771;-67
2023/03/02 06:15:14;;;;;;;15.60;5.80;;;;;;;25.09;20.66;100569.01;108321;1253;71043;-66
2023/03/02 06:17:42;;;;;;;17.80;6.30;;;;;;;25.36;20.35;100566.33;108250;1252;72837;-66
2023/03/02 06:20:13;;;;;;;14.10;6.20;;;;;;;25.71;20.00;100568.27;108390;1256;59606;-67
2023/03/02 06:23:02;;;;;;;;;;;;;;;25.91;19.55;100563.58;108116;1252;61349;-67
2023/03/02 06:25:31;;;;;;;12.50;5.60;;;;;;;26.25;19.68;100569.16;108303;1252;74353;-67
2023/03/02 06:27:58;;;;;;;16.70;5.90;;;;;;;26.40;19.30;100570.45;108312;1252;69319;-67
2023/03/02 06:30:27;;;;;;;14.10;5.40;;;;;;;26.62;19.01;100564.30;108217;1253;72444;-68
2023/03/02 06:32:58;;;;;;;14.60;5.70;;;;;;;26.71;18.40;100565.99;108243;1252;59554;-69
2023/03/02 06:35:27;;;;;;;12.20;6.00;;;;;;;27.07;18.25;100565.08;108279;1253;61412;-68
2023/03/02 06:37:56;;;;;;;14.50;5.60;;;;;;;27.19;18.15;100557.64;108250;1252;74411;-68
2023/03/02 06:40:26;;;;;;;9.60;5.30;;;;;;;27.65;17.79;100559.67;108223;1253;72388;-67
2023/03/02 06:42:54;;;;;;;15.40;5.90;;;;;;;27.99;17.37;100553.69;108212;1252;73542;-66
2023/03/02 06:45:23;;;;;;;13.30;6.00;;;;;;;28.39;17.04;100548.05;108288;1253;61616;-66
2023/03/02 06:47:51;;;;;;;15.20;6.70;;;;;;;28.14;17.19;100551.86;108330;1253;61077;-66
2023/03/02 06:50:22;;;;;;;11.20;5.20;;;;;;;28.16;17.13;100553.83;108160;1253;74410;-67
2023/03/02 06:52:50;;;;;;;15.80;6.00;;;;;;;28.11;17.28;100547.54;108266;1252;69738;-67
2023/03/02 06:55:21;;;;;;;12.60;5.60;;;;;;;28.06;17.11;100545.48;108263;1253;73113;-66
2023/03/02 06:57:49;;;;;;;12.80;5.30;;;;;;;28.45;17.11;100546.52;108326;1253;60636;-66
2023/03/02 07:00:24;;;;;;;13.30;5.30;;;;;;;28.85;16.70;100547.88;108257;1252;60036;-66
2023/03/02 07:02:55;;;;;;;8.60;4.60;;;;;;;28.98;16.65;100551.09;108210;1253;74473;-67
2023/03/02 07:05:28;;;;;;;12.30;5.70;;;;;;;29.17;16.32;100549.69;108241;1253;71435;-67
2023/03/02 07:07:59;;;;;;;11.60;5.70;;;;;;;29.29;16.02;100545.67;108190;1252;73795;-66
2023/03/02 07:10:27;;;;;;;12.60;6.00;;;;;;;29.34;15.87;100542.52;108187;1256;59778;-67
2023/03/02 07:12:55;;;;;;;11.10;5.70;;;;;;;29.12;16.12;100546.20;108267;1252;60915;-67
2023/03/02 07:15:26;;;;;;;13.20;6.00;;;;;;;28.93;15.75;100543.36;108217;1253;73235;-66
2023/03/02 07:17:55;;;;;;;11.90;5.60;;;;;;;29.00;15.96;100542.60;108215;1252;70130;-66
2023/03/02 07:20:23;;;;;;;11.40;5.80;;;;;;;29.19;16.05;100540.54;108170;1253;73868;-66
2023/03/02 07:22:52;;;;;;;13.00;5.70;;;;;;;29.69;15.93;100538.86;108196;1256;61411;-66
2023/03/02 07:25:20;;;;;;;9.30;4.90;;;;;;;29.81;15.43;100536.52;108212;1253;61036;-66
2023/03/02 07:27:48;;;;;;;12.50;5.40;;;;;;;29.76;15.50;100538.58;108335;1252;72253;-67
2023/03/02 07:30:20;;;;;;;12.90;5.80;;;;;;;30.37;15.13;100537.51;108270;1253;71723;-68
2023/03/02 07:32:49;;;;;;;14.60;5.10;;;;;;;30.58;14.98;100538.11;108359;1252;72759;-67
2023/03/02 07:35:18;;;;;;;9.00;4.90;;;;;;;30.23;15.10;100533.86;108316;1253;61320;-67
2023/03/02 07:37:46;;;;;;;11.70;5.30;;;;;;;30.61;14.97;100530.23;108309;1252;60994;-68
2023/03/02 07:40:14;;;;;;;11.60;4.70;;;;;;;30.46;14.75;100529.83;108243;1253;73982;-69
2023/03/02 07:42:43;;;;;;;9.50;4.40;;;;;;;30.15;15.01;100532.77;108267;1256;71269;-65
2023/03/02 07:45:15;;;;;;;12.30;5.00;;;;;;;29.97;14.91;100529.76;108342;1253;72720;-67
2023/03/02 07:47:44;;;;;;;10.40;4.80;;;;;;;30.15;15.15;100526.30;108313;1256;61596;-69
2023/03/02 07:50:12;;;;;;;10.30;5.20;;;;;;;30.43;15.02;100527.27;108334;1253;60169;-67
2023/03/02 07:52:40;;;;;;;8.10;4.60;;;;;;;30.63;14.75;100526.33;108233;1253;72916;-65
2023/03/02 07:55:09;;;;;;;10.50;5.40;;;;;;;30.28;14.98;100522.30;108290;1253;70062;-66
2023/03/02 07:57:37;;;;;;;12.10;4.80;;;;;;;30.79;14.66;100517.88;108304;1252;72967;-65
2023/03/02 08:00:07;;;;;;;9.60;4.80;;;;;;;30.35;14.69;100520.77;108359;1253;60535;-66
2023/03/02 08:02:40;;;;;;;12.80;5.10;;;;;;;29.94;15.22;100516.37;108369;1252;60350;-67
2023/03/02 08:05:09;;;;;;;11.60;5.40;;;;;;;30.53;14.72;100514.77;108316;1253;73779;-68
2023/03/02 08:07:39;;;;;;;13.10;5.20;;;;;;;30.85;14.56;100518.50;108336;1253;70135;-69
2023/03/02 08:10:09;;;;;;;9.60;4.50;;;;;;;31.53;14.31;100509.35;108247;1253;73137;-67
2023/03/02 08:12:37;;;;;;;11.00;4.50;;;;;;;32.03;13.90;100500.77;108288;1252;60671;-66
2023/03/02 08:15:08;;;;;;;10.50;4.80;;;;;;;32.13;13.59;100505.59;108294;1256;61262;-68
2023/03/02 08:17:37;;;;;;;12.80;4.40;;;;;;;32.06;13.53;100509.34;108184;1253;75091;-69
2023/03/02 08:20:08;;;;;;;10.10;4.50;;;;;;;31.85;13.63;100513.45;108319;1252;71570;-67
2023/03/02 08:22:36;;;;;;;9.50;4.40;;;;;;;31.59;13.84;100509.92;108217;1253;73639;-68
2023/03/02 08:25:07;;;;;;;8.80;4.00;;;;;;;31.64;13.98;100513.69;108225;1253;61401;-67
2023/03/02 08:27:35;;;;;;;9.10;4.00;;;;;;;31.93;13.66;100508.91;108220;1253;61298;-66
2023/03/02 08:30:06;;;;;;;8.80;3.50;;;;;;;32.54;13.33;100508.30;107983;1253;74979;-66
2023/03/02 08:32:34;;;;;;;9.90;3.90;;;;;;;32.06;13.46;100505.16;108152;1253;71402;-66
2023/03/02 08:35:04;;;;;;;6.70;3.90;;;;;;;32.30;13.25;100506.77;107983;1253;72938;-67
2023/03/02 08:37:33;;;;;;;12.20;4.80;;;;;;;31.87;13.46;100506.35;108166;1253;60173;-66
2023/03/02 08:40:02;;;;;;;10.40;4.30;;;;;;;31.91;13.59;100506.37;108202;1253;61664;-67
2023/03/02 08:42:31;;;;;;;9.70;4.10;;;;;;;32.05;13.33;100505.02;108019;1253;74544;-67
2023/03/02 08:45:05;;;;;;;11.60;4.80;;;;;;;32.20;13.32;100506.38;108149;1253;71292;-66
2023/03/02 08:47:34;;;;;;;9.90;4.80;;;;;;;32.50;13.31;100508.63;108179;1253;74336;-68
2023/03/02 08:50:03;;;;;;;7.90;3.90;;;;;;;33.08;13.02;100512.33;107967;1253;60434;-67
2023/03/02 08:52:33;;;;;;;12.50;4.80;;;;;;;33.16;12.79;100504.25;107955;1253;61380;-66
2023/03/02 08:55:01;;;;;;;10.20;4.20;;;;;;;32.72;13.04;100505.48;108210;1253;72341;-69
2023/03/02 08:57:31;;;;;;;16.20;4.70;;;;;;;32.03;13.30;100503.67;107917;1253;69477;-67
2023/03/02 09:00:00;;;;;;;11.30;4.80;;;;;;;33.06;13.03;100503.48;108185;1253;74271;-68
2023/03/02 09:02:28;;;;;;;12.60;4.50;;;;;;;33.44;12.63;100502.58;108091;1253;61369;-68
2023/03/02 09:05:00;;;;;;;10.60;5.20;;;;;;;32.94;12.72;100506.80;108089;1253;61402;-68
2023/03/02 09:07:29;;;;;;;11.40;4.90;;;;;;;32.58;13.09;100503.14;108171;1253;75054;-68
2023/03/02 09:10:00;;;;;;;14.10;4.90;;;;;;;32.62;13.18;100499.97;108171;1253;70620;-68
2023/03/02 09:12:29;;;;;;;11.20;4.60;;;;;;;32.93;13.12;100502.20;108246;1253;72060;-67
2023/03/02 09:14:57;;;;;;;9.20;4.90;;;;;;;31.94;13.20;100505.10;108242;1253;61320;-68
2023/03/02 09:17:25;;;;;;;11.80;5.60;;;;;;;31.37;13.67;100510.30;108192;1253;60278;-66
2023/03/02 09:19:53;;;;;;;8.80;4.90;;;;;;;30.76;14.16;100505.33;108039;1253;73276;-68
2023/03/02 09:22:21;;;;;;;10.40;4.60;;;;;;;31.34;13.96;100501.13;108161;1253;69787;-68
2023/03/02 09:24:49;;;;;;;7.90;4.40;;;;;;;31.90;13.43;100501.30;108121;1253;72183;-69
2023/03/02 09:27:17;;;;;;;9.60;4.80;;;;;;;32.02;13.21;100496.70;108111;1253;60027;-69
2023/03/02 09:29:46;;;;;;;10.10;4.80;;;;;;;32.71;13.02;100496.42;108155;1253;60441;-67
2023/03/02 09:32:14;;;;;;;8.80;4.60;;;;;;;32.62;13.17;100497.67;108133;1255;74765;-67
2023/03/02 09:34:43;;;;;;;10.20;5.50;;;;;;;32.80;13.13;100496.88;108032;1253;71629;-68
2023/03/02 09:37:11;;;;;;;10.70;4.90;;;;;;;32.38;12.86;100499.54;108110;1252;72883;-68
2023/03/02 09:39:39;;;;;;;11.90;4.90;;;;;;;31.85;13.18;100502.79;108133;1253;60431;-66
2023/03/02 09:42:32;;;;;;;12.40;6.30;;;;;;;31.74;13.35;100506.31;108158;1253;61187;-67
2023/03/02 09:45:32;;;;;;;10.90;4.40;;;;;;;32.50;13.20;100503.52;108183;1253;75063;-66
2023/03/02 09:48:13;;;;;;;11.30;4.60;;;;;;;32.74;13.11;100504.73;108154;1253;70349;-66
2023/03/02 09:50:51;;;;;;;13.40;5.10;;;;;;;33.06;12.90;100502.69;108199;1253;73865;-67
2023/03/02 09:53:28;;;;;;;9.90;4.80;;;;;;;33.11;12.87;100500.47;108160;1253;60517;-66
2023/03/02 09:56:03;;;;;;;11.80;5.10;;;;;;;33.53;12.84;100501.10;108137;1253;61303;-67
2023/03/02 09:58:37;;;;;;;13.20;5.20;;;;;;;33.59;12.61;100502.38;108166;1253;74944;-67
2023/03/02 10:01:11;;;;;;;12.10;4.20;;;;;;;33.82;12.29;100498.80;108181;1253;70516;-67
2023/03/02 10:03:49;;;;;;;11.70;4.20;;;;;;;32.91;12.48;100495.84;108181;1253;72372;-67
2023/03/02 10:06:19;;;;;;;8.50;4.30;;;;;;;32.11;12.77;100495.10;108185;1252;61600;-67
2023/03/02 10:08:49;;;;;;;9.10;3.90;;;;;;;31.90;13.17;100492.59;108333;1252;61629;-67
2023/03/02 10:11:34;;;;;;;9.60;4.40;;;;;;;32.22;12.95;100489.22;108198;1251;74551;-68
2023/03/02 10:14:12;;;;;;;9.40;4.20;;;;;;;32.49;12.89;100488.60;108200;1253;71237;-67
2023/03/02 10:16:47;;;;;;;8.90;4.20;;;;;;;32.65;12.55;100486.26;108226;1251;72852;-66
2023/03/02 10:19:25;;;;;;;11.30;4.90;;;;;;;32.60;12.42;100485.98;108293;1251;61118;-69
2023/03/02 10:21:58;;;;;;;9.20;3.60;;;;;;;33.03;12.42;100477.63;108303;1253;61324;-69
2023/03/02 10:24:44;;;;;;;9.10;3.90;;;;;;;32.87;12.40;100479.90;108291;1252;74610;-68
2023/03/02 10:27:24;;;;;;;8.10;4.10;;;;;;;32.89;12.53;100484.54;108142;1251;69861;-67
2023/03/02 10:30:17;;;;;;;10.60;4.30;;;;;;;33.24;12.30;100478.05;108348;1251;73905;-67
2023/03/02 10:32:51;;;;;;;9.80;4.20;;;;;;;33.88;12.10;100476.04;108243;1256;60413;-69
2023/03/02 10:35:24;;;;;;;8.90;4.20;;;;;;;33.77;12.13;100476.42;108307;1253;60333;-68
2023/03/02 10:37:59;;;;;;;19.70;5.00;;;;;;;33.95;11.96;100478.89;108292;1252;73969;-69
2023/03/02 10:40:49;;;;;;;10.90;4.30;;;;;;;34.12;11.87;100470.92;108352;1256;69735;-69
2023/03/02 10:43:30;;;;;;;9.80;4.40;;;;;;;34.04;11.89;100468.77;108223;1251;72203;-68
2023/03/02 10:46:07;;;;;;;7.90;3.70;;;;;;;33.73;11.76;100468.88;108323;1253;59415;-68
2023/03/02 10:49:00;;;;;;;8.90;3.60;;;;;;;33.71;11.86;100468.32;108246;1254;60256;-67
2023/03/02 10:51:30;;;;;;;9.80;4.60;;;;;;;33.45;12.08;100465.95;108259;1251;75129;-69
2023/03/02 10:54:03;;;;;;;10.00;4.20;;;;;;;33.57;12.01;100462.12;108184;1253;71556;-68
2023/03/02 10:56:33;;;;;;;8.10;3.70;;;;;;;33.66;11.82;100459.70;108232;1254;73644;-68
2023/03/02 10:59:28;;;;;;;9.20;4.40;;;;;;;32.36;12.39;100458.75;108229;1253;60424;-68
2023/03/02 11:02:24;;;;;;;8.80;4.80;;;;;;;32.43;12.55;100457.55;108202;1256;61281;-67
2023/03/02 11:05:17;;;;;;;10.20;3.90;;;;;;;32.55;12.58;100449.52;108239;1252;74738;-67
2023/03/02 11:08:01;;;;;;;8.00;4.10;;;;;;;32.00;12.78;100448.29;108153;1253;69185;-67
2023/03/02 11:10:35;;;;;;;12.70;4.20;;;;;;;32.34;12.89;100452.23;108269;1253;73032;-67
2023/03/02 11:13:28;;;;;;;8.70;4.00;;;;;;;32.50;12.52;100451.45;108287;1255;61391;-68
2023/03/02 11:16:00;;;;;;;7.40;3.70;;;;;;;32.59;12.08;100447.73;108304;1253;61314;-69
2023/03/02 11:18:37;;;;;;;9.40;4.40;;;;;;;32.26;12.34;100450.04;108325;1251;73020;-68
2023/03/02 11:21:09;;;;;;;9.00;3.90;;;;;;;32.48;12.52;100450.56;108351;1253;70662;-68
2023/03/02 11:24:15;;;;;;;10.60;4.10;;;;;;;32.42;12.45;100454.71;108193;1252;73626;-68
2023/03/02 11:26:46;;;;;;;8.50;4.50;;;;;;;32.51;12.31;100442.87;108377;1252;61561;-68
2023/03/02 11:30:03;;;;;;;8.90;4.40;;;;;;;32.42;12.45;100438.95;108173;1253;59019;-69
2023/03/02 11:32:40;;;;;;;22.30;5.20;;;;;;;33.10;12.17;100437.70;107632;1259;74084;-68
2023/03/02 11:35:37;;;;;;;4.90;3.40;;;;;;;33.16;12.02;100433.78;107559;1259;70978;-68
2023/03/02 11:38:26;;;;;;;7.30;3.70;;;;;;;33.31;12.00;100434.06;108069;1253;71788;-69